TAP1369 EGLL-LPPT
Flight info
| Callsign | TAP1369 |
|---|---|
| Flight time | 2h 30m |
| Altitude | 35000 |
| Route | GASGU N866 SAM M195 LORKU DCT POZOF/N0450F370 DCT BALDA DCT ABUPI DCT XAMAX XAMA2A |
| Aircraft | A320/M-SDE3FGHIRWY/LB1 |
Departure
| Time | 2026-05-04 20:10 |
|---|---|
| Airport | London Heathrow Airport (EGLL) |
Arrival
| Time | 2026-05-04 22:40 |
|---|---|
| Airport | Lisbon Humberto Delgado Airport (LPPT) |
| Time | Latitude | Longitude | Altitude | Speed | Heading |
|---|---|---|---|---|---|
| 2026-05-04 19:43 | 51.46983 | -0.48236 | 85 ft | 0 kts | 91° |
| 2026-05-04 19:57 | 51.46983 | -0.48245 | 85 ft | 2 kts | 90° |
| 2026-05-04 19:57 | 51.46983 | -0.48266 | 89 ft | 2 kts | 90° |
| 2026-05-04 19:57 | 51.46983 | -0.48287 | 86 ft | 2 kts | 92° |
| 2026-05-04 19:57 | 51.46983 | -0.48309 | 87 ft | 2 kts | 86° |
| 2026-05-04 19:58 | 51.46981 | -0.48330 | 88 ft | 2 kts | 59° |
| 2026-05-04 19:58 | 51.46973 | -0.48347 | 88 ft | 2 kts | 31° |
| 2026-05-04 19:58 | 51.46961 | -0.48356 | 88 ft | 2 kts | 3° |
| 2026-05-04 19:58 | 51.46959 | -0.48357 | 88 ft | 0 kts | 358° |
| 2026-05-04 20:05 | 51.46971 | -0.48357 | 87 ft | 3 kts | 359° |
| 2026-05-04 20:05 | 51.46988 | -0.48358 | 85 ft | 2 kts | 359° |
| 2026-05-04 20:05 | 51.46996 | -0.48358 | 85 ft | 1 kts | 359° |
| 2026-05-04 20:05 | 51.47031 | -0.48367 | 85 ft | 11 kts | 334° |
| 2026-05-04 20:06 | 51.47033 | -0.48462 | 88 ft | 9 kts | 214° |
| 2026-05-04 20:06 | 51.46976 | -0.48472 | 85 ft | 8 kts | 179° |
| 2026-05-04 20:06 | 51.46929 | -0.48470 | 85 ft | 6 kts | 179° |
| 2026-05-04 20:06 | 51.46888 | -0.48470 | 87 ft | 5 kts | 180° |
| 2026-05-04 20:07 | 51.46857 | -0.48471 | 85 ft | 4 kts | 180° |
| 2026-05-04 20:07 | 51.46831 | -0.48471 | 86 ft | 6 kts | 180° |
| 2026-05-04 20:07 | 51.46786 | -0.48471 | 85 ft | 6 kts | 180° |
| 2026-05-04 20:07 | 51.46745 | -0.48471 | 85 ft | 8 kts | 179° |
| 2026-05-04 20:08 | 51.46664 | -0.48469 | 87 ft | 10 kts | 179° |
| 2026-05-04 20:08 | 51.46609 | -0.48469 | 89 ft | 7 kts | 180° |
| 2026-05-04 20:08 | 51.46527 | -0.48469 | 88 ft | 15 kts | 180° |
| 2026-05-04 20:08 | 51.46478 | -0.48367 | 87 ft | 12 kts | 94° |
| 2026-05-04 20:09 | 51.46480 | -0.48231 | 87 ft | 13 kts | 88° |
| 2026-05-04 20:09 | 51.46484 | -0.47951 | 83 ft | 57 kts | 88° |
| 2026-05-04 20:09 | 51.46494 | -0.46847 | 88 ft | 137 kts | 90° |
| 2026-05-04 20:09 | 51.46476 | -0.45010 | 308 ft | 178 kts | 89° |
| 2026-05-04 20:10 | 51.46472 | -0.43023 | 1232 ft | 177 kts | 86° |
| 2026-05-04 20:10 | 51.46253 | -0.41044 | 1948 ft | 193 kts | 116° |
| 2026-05-04 20:10 | 51.45418 | -0.39206 | 2271 ft | 214 kts | 124° |
| 2026-05-04 20:10 | 51.44509 | -0.37177 | 2682 ft | 231 kts | 122° |
| 2026-05-04 20:11 | 51.43523 | -0.35012 | 3182 ft | 252 kts | 131° |
| 2026-05-04 20:11 | 51.42063 | -0.33344 | 3855 ft | 266 kts | 157° |
| 2026-05-04 20:11 | 51.40243 | -0.32795 | 4687 ft | 271 kts | 183° |
| 2026-05-04 20:11 | 51.38422 | -0.33540 | 5524 ft | 273 kts | 208° |
| 2026-05-04 20:12 | 51.37374 | -0.34670 | 5830 ft | 275 kts | 221° |
| 2026-05-04 20:12 | 51.35481 | -0.37402 | 6051 ft | 275 kts | 223° |
| 2026-05-04 20:12 | 51.34072 | -0.39481 | 6896 ft | 275 kts | 223° |
| 2026-05-04 20:12 | 51.32662 | -0.41561 | 7747 ft | 277 kts | 223° |
| 2026-05-04 20:13 | 51.31265 | -0.43650 | 8565 ft | 280 kts | 227° |
| 2026-05-04 20:13 | 51.30488 | -0.45343 | 9098 ft | 282 kts | 243° |
| 2026-05-04 20:13 | 51.29833 | -0.48320 | 9911 ft | 285 kts | 254° |
| 2026-05-04 20:13 | 51.29103 | -0.52464 | 10481 ft | 307 kts | 253° |
| 2026-05-04 20:14 | 51.28698 | -0.54735 | 10625 ft | 322 kts | 253° |
| 2026-05-04 20:14 | 51.27847 | -0.59400 | 11306 ft | 335 kts | 253° |
| 2026-05-04 20:14 | 51.27386 | -0.61817 | 11750 ft | 339 kts | 252° |
| 2026-05-04 20:14 | 51.26678 | -0.65437 | 12428 ft | 344 kts | 252° |
| 2026-05-04 20:15 | 51.25954 | -0.69102 | 13114 ft | 348 kts | 252° |
| 2026-05-04 20:15 | 51.25222 | -0.72809 | 13781 ft | 353 kts | 252° |
| 2026-05-04 20:15 | 51.24481 | -0.76571 | 14378 ft | 357 kts | 252° |
| 2026-05-04 20:15 | 51.23734 | -0.80372 | 14863 ft | 361 kts | 252° |
| 2026-05-04 20:16 | 51.22983 | -0.84192 | 14998 ft | 360 kts | 252° |
| 2026-05-04 20:16 | 51.22234 | -0.88002 | 15028 ft | 361 kts | 252° |
| 2026-05-04 20:16 | 51.21472 | -0.91817 | 15031 ft | 360 kts | 250° |
| 2026-05-04 20:16 | 51.20408 | -0.95423 | 15029 ft | 360 kts | 238° |
| 2026-05-04 20:17 | 51.18929 | -0.98623 | 15028 ft | 359 kts | 227° |
| 2026-05-04 20:17 | 51.17153 | -1.01407 | 15032 ft | 359 kts | 223° |
| 2026-05-04 20:17 | 51.15343 | -1.04172 | 15028 ft | 360 kts | 223° |
| 2026-05-04 20:17 | 51.13544 | -1.06934 | 15028 ft | 360 kts | 223° |
| 2026-05-04 20:18 | 51.11742 | -1.09707 | 15030 ft | 360 kts | 223° |
| 2026-05-04 20:18 | 51.09940 | -1.12481 | 15028 ft | 361 kts | 223° |
| 2026-05-04 20:18 | 51.08129 | -1.15268 | 15282 ft | 364 kts | 223° |
| 2026-05-04 20:18 | 51.06310 | -1.18065 | 15973 ft | 365 kts | 223° |
| 2026-05-04 20:19 | 51.04468 | -1.20882 | 16617 ft | 368 kts | 223° |
| 2026-05-04 20:19 | 51.02615 | -1.23709 | 17248 ft | 370 kts | 223° |
| 2026-05-04 20:19 | 51.00769 | -1.26523 | 17840 ft | 374 kts | 223° |
| 2026-05-04 20:19 | 50.98886 | -1.29389 | 18417 ft | 377 kts | 223° |
| 2026-05-04 20:20 | 50.96984 | -1.32282 | 18949 ft | 380 kts | 222° |
| 2026-05-04 20:20 | 50.94990 | -1.35029 | 19484 ft | 381 kts | 214° |
| 2026-05-04 20:20 | 50.92779 | -1.37368 | 20029 ft | 383 kts | 212° |
| 2026-05-04 20:20 | 50.90549 | -1.39689 | 20586 ft | 385 kts | 212° |
| 2026-05-04 20:21 | 50.88308 | -1.42028 | 21133 ft | 387 kts | 212° |
| 2026-05-04 20:21 | 50.86050 | -1.44381 | 21685 ft | 389 kts | 212° |
| 2026-05-04 20:21 | 50.81501 | -1.49098 | 22761 ft | 393 kts | 211° |
| 2026-05-04 20:22 | 50.79202 | -1.51478 | 23287 ft | 395 kts | 211° |
| 2026-05-04 20:22 | 50.76897 | -1.53865 | 23767 ft | 397 kts | 211° |
| 2026-05-04 20:22 | 50.74579 | -1.56260 | 24198 ft | 399 kts | 211° |
| 2026-05-04 20:22 | 50.72252 | -1.58664 | 24637 ft | 400 kts | 211° |
| 2026-05-04 20:23 | 50.69921 | -1.61068 | 25068 ft | 401 kts | 211° |
| 2026-05-04 20:23 | 50.67585 | -1.63476 | 25484 ft | 402 kts | 211° |
| 2026-05-04 20:23 | 50.65241 | -1.65887 | 25896 ft | 403 kts | 211° |
| 2026-05-04 20:23 | 50.62896 | -1.68298 | 26301 ft | 404 kts | 211° |
| 2026-05-04 20:24 | 50.60541 | -1.70717 | 26687 ft | 405 kts | 211° |
| 2026-05-04 20:24 | 50.58179 | -1.73143 | 27079 ft | 406 kts | 211° |
| 2026-05-04 20:24 | 50.55815 | -1.75567 | 27464 ft | 406 kts | 211° |
| 2026-05-04 20:24 | 50.53439 | -1.77997 | 27848 ft | 407 kts | 211° |
| 2026-05-04 20:25 | 50.51059 | -1.80426 | 28206 ft | 408 kts | 211° |
| 2026-05-04 20:25 | 50.48677 | -1.82853 | 28579 ft | 409 kts | 211° |
| 2026-05-04 20:25 | 50.46282 | -1.85290 | 28934 ft | 410 kts | 210° |
| 2026-05-04 20:25 | 50.43883 | -1.87726 | 29280 ft | 411 kts | 210° |
| 2026-05-04 20:26 | 50.41480 | -1.90169 | 29623 ft | 412 kts | 210° |
| 2026-05-04 20:26 | 50.39071 | -1.92619 | 29945 ft | 413 kts | 210° |
| 2026-05-04 20:26 | 50.36661 | -1.95070 | 30223 ft | 414 kts | 210° |
| 2026-05-04 20:26 | 50.34236 | -1.97532 | 30460 ft | 416 kts | 210° |
| 2026-05-04 20:27 | 50.31801 | -1.99994 | 30666 ft | 418 kts | 210° |
| 2026-05-04 20:27 | 50.29351 | -2.02460 | 30873 ft | 419 kts | 210° |
| 2026-05-04 20:27 | 50.26892 | -2.04931 | 31071 ft | 421 kts | 210° |
| 2026-05-04 20:27 | 50.24424 | -2.07410 | 31327 ft | 421 kts | 210° |
| 2026-05-04 20:28 | 50.21951 | -2.09870 | 31606 ft | 421 kts | 210° |
| 2026-05-04 20:28 | 50.19471 | -2.12304 | 31866 ft | 422 kts | 210° |
| 2026-05-04 20:28 | 50.16978 | -2.14728 | 32129 ft | 422 kts | 210° |
| 2026-05-04 20:28 | 50.14482 | -2.17143 | 32385 ft | 423 kts | 210° |
| 2026-05-04 20:29 | 50.11981 | -2.19560 | 32638 ft | 423 kts | 210° |
| 2026-05-04 20:29 | 50.09477 | -2.21983 | 32878 ft | 424 kts | 210° |
| 2026-05-04 20:29 | 50.06997 | -2.24379 | 33123 ft | 425 kts | 210° |
| 2026-05-04 20:29 | 50.04485 | -2.26805 | 33368 ft | 426 kts | 210° |
| 2026-05-04 20:30 | 50.01966 | -2.29241 | 33604 ft | 427 kts | 210° |
| 2026-05-04 20:30 | 49.99441 | -2.31684 | 33851 ft | 427 kts | 210° |
| 2026-05-04 20:30 | 49.96912 | -2.34126 | 34091 ft | 428 kts | 210° |
| 2026-05-04 20:30 | 49.94376 | -2.36553 | 34281 ft | 429 kts | 208° |
| 2026-05-04 20:31 | 49.91708 | -2.38602 | 34484 ft | 428 kts | 203° |
| 2026-05-04 20:31 | 49.88989 | -2.40509 | 34674 ft | 429 kts | 203° |
| 2026-05-04 20:31 | 49.86263 | -2.42411 | 34863 ft | 429 kts | 203° |
| 2026-05-04 20:31 | 49.83532 | -2.44310 | 34993 ft | 430 kts | 203° |
| 2026-05-04 20:32 | 49.78116 | -2.48075 | 35023 ft | 425 kts | 203° |
| 2026-05-04 20:32 | 49.72727 | -2.51834 | 35019 ft | 424 kts | 203° |
| 2026-05-04 20:33 | 49.67347 | -2.55565 | 35014 ft | 424 kts | 203° |
| 2026-05-04 20:33 | 49.61964 | -2.59289 | 35007 ft | 424 kts | 203° |
| 2026-05-04 20:34 | 49.56579 | -2.63009 | 35010 ft | 424 kts | 203° |
| 2026-05-04 20:34 | 49.51190 | -2.66714 | 35010 ft | 424 kts | 203° |
| 2026-05-04 20:35 | 49.45799 | -2.70408 | 35012 ft | 424 kts | 203° |
| 2026-05-04 20:35 | 49.40446 | -2.74086 | 35011 ft | 424 kts | 203° |
| 2026-05-04 20:36 | 49.35052 | -2.77780 | 35015 ft | 424 kts | 203° |
| 2026-05-04 20:36 | 49.29656 | -2.81460 | 35022 ft | 425 kts | 202° |
| 2026-05-04 20:37 | 49.24254 | -2.85134 | 35022 ft | 425 kts | 202° |
| 2026-05-04 20:37 | 49.18811 | -2.88827 | 35024 ft | 425 kts | 202° |
| 2026-05-04 20:38 | 49.13436 | -2.92461 | 35029 ft | 425 kts | 202° |
| 2026-05-04 20:38 | 49.08022 | -2.96126 | 35030 ft | 426 kts | 202° |
| 2026-05-04 20:39 | 49.02602 | -2.99778 | 35027 ft | 426 kts | 202° |
| 2026-05-04 20:39 | 48.97174 | -3.03422 | 35029 ft | 426 kts | 202° |
| 2026-05-04 20:40 | 48.91744 | -3.07061 | 35028 ft | 427 kts | 202° |
| 2026-05-04 20:40 | 48.86310 | -3.10696 | 35029 ft | 427 kts | 202° |
| 2026-05-04 20:41 | 48.80864 | -3.14335 | 35027 ft | 427 kts | 202° |
| 2026-05-04 20:41 | 48.75423 | -3.17966 | 35027 ft | 428 kts | 202° |
| 2026-05-04 20:42 | 48.69968 | -3.21587 | 35029 ft | 428 kts | 202° |
| 2026-05-04 20:42 | 48.64514 | -3.25203 | 35029 ft | 428 kts | 202° |
| 2026-05-04 20:43 | 48.59056 | -3.28818 | 35030 ft | 428 kts | 202° |
| 2026-05-04 20:43 | 48.53591 | -3.32421 | 35029 ft | 429 kts | 202° |
| 2026-05-04 20:44 | 48.48121 | -3.36014 | 35027 ft | 429 kts | 202° |
| 2026-05-04 20:44 | 48.42651 | -3.39610 | 35024 ft | 429 kts | 202° |
| 2026-05-04 20:45 | 48.37177 | -3.43195 | 35023 ft | 429 kts | 202° |
| 2026-05-04 20:45 | 48.31698 | -3.46776 | 35024 ft | 429 kts | 202° |
| 2026-05-04 20:46 | 48.26223 | -3.50350 | 35021 ft | 429 kts | 202° |
| 2026-05-04 20:46 | 48.20743 | -3.53920 | 35020 ft | 429 kts | 202° |
| 2026-05-04 20:47 | 48.15255 | -3.57474 | 35018 ft | 430 kts | 202° |
| 2026-05-04 20:47 | 48.09771 | -3.61014 | 35019 ft | 430 kts | 202° |
| 2026-05-04 20:48 | 48.04319 | -3.64536 | 35014 ft | 429 kts | 202° |
| 2026-05-04 20:48 | 47.98834 | -3.68081 | 35014 ft | 429 kts | 202° |
| 2026-05-04 20:49 | 47.93355 | -3.71605 | 35019 ft | 429 kts | 202° |
| 2026-05-04 20:49 | 47.87871 | -3.75109 | 35019 ft | 428 kts | 202° |
| 2026-05-04 20:50 | 47.82397 | -3.78611 | 35017 ft | 428 kts | 202° |
| 2026-05-04 20:50 | 47.76932 | -3.82112 | 35017 ft | 427 kts | 202° |
| 2026-05-04 20:51 | 47.71470 | -3.85591 | 35014 ft | 427 kts | 202° |
| 2026-05-04 20:51 | 47.66004 | -3.89052 | 35010 ft | 427 kts | 202° |
| 2026-05-04 20:52 | 47.60538 | -3.92515 | 35012 ft | 427 kts | 202° |
| 2026-05-04 20:52 | 47.55076 | -3.95976 | 35014 ft | 427 kts | 201° |
| 2026-05-04 20:53 | 47.49608 | -3.99429 | 35013 ft | 427 kts | 201° |
| 2026-05-04 20:53 | 47.44150 | -4.02872 | 35012 ft | 427 kts | 201° |
| 2026-05-04 20:54 | 47.38681 | -4.06317 | 35013 ft | 427 kts | 201° |
| 2026-05-04 20:54 | 47.33219 | -4.09742 | 35016 ft | 427 kts | 201° |
| 2026-05-04 20:55 | 47.27750 | -4.13153 | 35016 ft | 427 kts | 201° |
| 2026-05-04 20:55 | 47.22278 | -4.16569 | 35018 ft | 427 kts | 201° |
| 2026-05-04 20:56 | 47.16808 | -4.19982 | 35025 ft | 427 kts | 201° |
| 2026-05-04 20:56 | 47.12256 | -4.22807 | 35024 ft | 427 kts | 201° |
| 2026-05-04 20:57 | 47.06771 | -4.26203 | 35027 ft | 427 kts | 201° |
| 2026-05-04 20:57 | 47.01243 | -4.29412 | 35026 ft | 427 kts | 199° |
| 2026-05-04 20:58 | 46.95661 | -4.32405 | 35029 ft | 427 kts | 199° |
| 2026-05-04 20:58 | 46.90071 | -4.35395 | 35029 ft | 428 kts | 199° |
| 2026-05-04 20:59 | 46.84491 | -4.38439 | 35026 ft | 428 kts | 200° |
| 2026-05-04 20:59 | 46.78914 | -4.41493 | 35028 ft | 428 kts | 199° |
| 2026-05-04 21:00 | 46.73327 | -4.44537 | 35022 ft | 428 kts | 199° |
| 2026-05-04 21:00 | 46.67740 | -4.47556 | 35022 ft | 428 kts | 199° |
| 2026-05-04 21:01 | 46.62156 | -4.50574 | 35025 ft | 428 kts | 200° |
| 2026-05-04 21:01 | 46.56570 | -4.53609 | 35007 ft | 428 kts | 200° |
| 2026-05-04 21:02 | 46.50982 | -4.56629 | 35014 ft | 429 kts | 200° |
| 2026-05-04 21:02 | 46.45382 | -4.59637 | 35016 ft | 429 kts | 200° |
| 2026-05-04 21:03 | 46.39781 | -4.62644 | 35020 ft | 429 kts | 200° |
| 2026-05-04 21:03 | 46.34173 | -4.65643 | 35026 ft | 430 kts | 200° |
| 2026-05-04 21:04 | 46.28561 | -4.68629 | 35024 ft | 430 kts | 200° |
| 2026-05-04 21:04 | 46.22953 | -4.71627 | 35028 ft | 430 kts | 200° |
| 2026-05-04 21:05 | 46.17338 | -4.74619 | 35033 ft | 430 kts | 200° |
| 2026-05-04 21:05 | 46.11728 | -4.77598 | 35028 ft | 430 kts | 200° |
| 2026-05-04 21:06 | 46.06596 | -4.80304 | 35023 ft | 430 kts | 200° |
| 2026-05-04 21:06 | 46.01310 | -4.83093 | 35024 ft | 430 kts | 200° |
| 2026-05-04 21:07 | 45.95644 | -4.86089 | 35025 ft | 430 kts | 200° |
| 2026-05-04 21:07 | 45.89983 | -4.89066 | 35030 ft | 430 kts | 200° |
| 2026-05-04 21:08 | 45.84409 | -4.92009 | 35022 ft | 430 kts | 200° |
| 2026-05-04 21:08 | 45.78742 | -4.94982 | 35025 ft | 430 kts | 200° |
| 2026-05-04 21:09 | 45.73110 | -4.97919 | 35032 ft | 431 kts | 200° |
| 2026-05-04 21:09 | 45.67519 | -5.00828 | 35026 ft | 431 kts | 200° |
| 2026-05-04 21:10 | 45.61889 | -5.03766 | 35028 ft | 431 kts | 200° |
| 2026-05-04 21:10 | 45.56226 | -5.06720 | 35028 ft | 431 kts | 200° |
| 2026-05-04 21:11 | 45.50633 | -5.09623 | 35031 ft | 430 kts | 200° |
| 2026-05-04 21:11 | 45.45006 | -5.12537 | 35032 ft | 430 kts | 200° |
| 2026-05-04 21:12 | 45.39378 | -5.15443 | 35032 ft | 430 kts | 200° |
| 2026-05-04 21:12 | 45.33754 | -5.18336 | 35035 ft | 430 kts | 200° |
| 2026-05-04 21:13 | 45.28129 | -5.21232 | 35033 ft | 430 kts | 200° |
| 2026-05-04 21:13 | 45.22512 | -5.24123 | 35036 ft | 430 kts | 200° |
| 2026-05-04 21:14 | 45.16889 | -5.26987 | 35039 ft | 430 kts | 200° |
| 2026-05-04 21:14 | 45.11262 | -5.29855 | 35035 ft | 430 kts | 200° |
| 2026-05-04 21:15 | 45.05642 | -5.32729 | 35031 ft | 430 kts | 200° |
| 2026-05-04 21:15 | 45.00020 | -5.35597 | 35033 ft | 430 kts | 200° |
| 2026-05-04 21:16 | 44.94392 | -5.38456 | 35030 ft | 430 kts | 200° |
| 2026-05-04 21:16 | 44.88759 | -5.41311 | 35030 ft | 430 kts | 200° |
| 2026-05-04 21:17 | 44.83134 | -5.44158 | 35034 ft | 430 kts | 200° |
| 2026-05-04 21:17 | 44.77503 | -5.46997 | 35025 ft | 430 kts | 200° |
| 2026-05-04 21:18 | 44.71866 | -5.49833 | 35040 ft | 430 kts | 200° |
| 2026-05-04 21:18 | 44.66243 | -5.52664 | 35035 ft | 429 kts | 200° |
| 2026-05-04 21:19 | 44.60617 | -5.55493 | 35035 ft | 429 kts | 201° |
| 2026-05-04 21:19 | 44.55106 | -5.58696 | 35036 ft | 429 kts | 205° |
| 2026-05-04 21:20 | 44.49686 | -5.62185 | 35041 ft | 429 kts | 206° |
| 2026-05-04 21:20 | 44.44260 | -5.65647 | 35042 ft | 429 kts | 205° |
| 2026-05-04 21:21 | 44.38806 | -5.69024 | 35033 ft | 429 kts | 205° |
| 2026-05-04 21:21 | 44.33338 | -5.72356 | 35041 ft | 429 kts | 205° |
| 2026-05-04 21:22 | 44.27868 | -5.75696 | 35040 ft | 429 kts | 205° |
| 2026-05-04 21:22 | 44.22406 | -5.79036 | 35032 ft | 429 kts | 205° |
| 2026-05-04 21:23 | 44.16937 | -5.82366 | 35039 ft | 429 kts | 205° |
| 2026-05-04 21:23 | 44.11474 | -5.85694 | 35041 ft | 429 kts | 205° |
| 2026-05-04 21:24 | 44.06005 | -5.89026 | 35047 ft | 429 kts | 205° |
| 2026-05-04 21:24 | 44.00538 | -5.92352 | 35047 ft | 429 kts | 205° |
| 2026-05-04 21:25 | 43.95064 | -5.95666 | 35048 ft | 429 kts | 205° |
| 2026-05-04 21:25 | 43.89587 | -5.98972 | 35048 ft | 429 kts | 205° |
| 2026-05-04 21:26 | 43.84111 | -6.02270 | 35052 ft | 429 kts | 205° |
| 2026-05-04 21:26 | 43.78635 | -6.05570 | 35050 ft | 429 kts | 205° |
| 2026-05-04 21:27 | 43.73152 | -6.08870 | 35050 ft | 429 kts | 205° |
| 2026-05-04 21:27 | 43.67708 | -6.12135 | 35049 ft | 430 kts | 205° |
| 2026-05-04 21:28 | 43.62221 | -6.15407 | 35049 ft | 430 kts | 205° |
| 2026-05-04 21:28 | 43.56731 | -6.18678 | 35049 ft | 430 kts | 205° |
| 2026-05-04 21:29 | 43.51241 | -6.21951 | 35048 ft | 430 kts | 205° |
| 2026-05-04 21:29 | 43.45756 | -6.25221 | 35052 ft | 430 kts | 205° |
| 2026-05-04 21:30 | 43.40266 | -6.28479 | 35050 ft | 430 kts | 205° |
| 2026-05-04 21:30 | 43.34780 | -6.31734 | 35054 ft | 430 kts | 205° |
| 2026-05-04 21:31 | 43.26543 | -6.36601 | 35065 ft | 429 kts | 206° |
| 2026-05-04 21:32 | 43.21056 | -6.39835 | 35065 ft | 429 kts | 206° |
| 2026-05-04 21:32 | 43.15562 | -6.43056 | 35064 ft | 430 kts | 206° |
| 2026-05-04 21:33 | 43.10064 | -6.46276 | 35064 ft | 430 kts | 206° |
| 2026-05-04 21:33 | 43.04569 | -6.49501 | 35062 ft | 430 kts | 206° |
| 2026-05-04 21:34 | 42.99073 | -6.52719 | 35066 ft | 430 kts | 206° |
| 2026-05-04 21:34 | 42.93574 | -6.55936 | 35064 ft | 430 kts | 206° |
| 2026-05-04 21:35 | 42.88073 | -6.59147 | 35070 ft | 430 kts | 206° |
| 2026-05-04 21:35 | 42.82571 | -6.62339 | 35070 ft | 430 kts | 206° |
| 2026-05-04 21:36 | 42.77071 | -6.65532 | 35069 ft | 430 kts | 206° |
| 2026-05-04 21:36 | 42.71566 | -6.68722 | 35075 ft | 430 kts | 206° |
| 2026-05-04 21:37 | 42.66069 | -6.71899 | 35076 ft | 430 kts | 206° |
| 2026-05-04 21:37 | 42.60563 | -6.75071 | 35077 ft | 429 kts | 206° |
| 2026-05-04 21:38 | 42.55063 | -6.78235 | 35079 ft | 429 kts | 206° |
| 2026-05-04 21:38 | 42.49571 | -6.81393 | 35082 ft | 429 kts | 206° |
| 2026-05-04 21:39 | 42.44076 | -6.84541 | 35081 ft | 429 kts | 206° |
| 2026-05-04 21:39 | 42.38588 | -6.87680 | 35082 ft | 429 kts | 206° |
| 2026-05-04 21:40 | 42.33090 | -6.90826 | 35081 ft | 429 kts | 207° |
| 2026-05-04 21:40 | 42.28527 | -6.93434 | 35081 ft | 428 kts | 207° |
| 2026-05-04 21:41 | 42.23037 | -6.96558 | 35080 ft | 428 kts | 207° |
| 2026-05-04 21:41 | 42.17546 | -6.99678 | 35085 ft | 428 kts | 207° |
| 2026-05-04 21:42 | 42.12061 | -7.02792 | 35084 ft | 428 kts | 207° |
| 2026-05-04 21:42 | 42.06572 | -7.05903 | 35090 ft | 427 kts | 207° |
| 2026-05-04 21:43 | 42.01098 | -7.09004 | 35088 ft | 427 kts | 207° |
| 2026-05-04 21:43 | 41.95617 | -7.12092 | 35085 ft | 427 kts | 207° |
| 2026-05-04 21:44 | 41.90143 | -7.15174 | 35085 ft | 427 kts | 207° |
| 2026-05-04 21:44 | 41.84670 | -7.18251 | 35090 ft | 426 kts | 207° |
| 2026-05-04 21:45 | 41.79199 | -7.21327 | 35090 ft | 426 kts | 207° |
| 2026-05-04 21:45 | 41.73838 | -7.24601 | 35085 ft | 420 kts | 215° |
| 2026-05-04 21:46 | 41.68784 | -7.28545 | 35085 ft | 420 kts | 215° |
| 2026-05-04 21:46 | 41.63740 | -7.32456 | 35086 ft | 420 kts | 215° |
| 2026-05-04 21:47 | 41.58675 | -7.36374 | 35084 ft | 419 kts | 215° |
| 2026-05-04 21:47 | 41.53627 | -7.40280 | 35091 ft | 419 kts | 215° |
| 2026-05-04 21:48 | 41.48582 | -7.44176 | 35088 ft | 419 kts | 215° |
| 2026-05-04 21:48 | 41.43542 | -7.48061 | 35094 ft | 418 kts | 216° |
| 2026-05-04 21:49 | 41.38512 | -7.51936 | 35090 ft | 418 kts | 216° |
| 2026-05-04 21:49 | 41.33479 | -7.55805 | 35098 ft | 417 kts | 216° |
| 2026-05-04 21:50 | 41.28461 | -7.59650 | 35096 ft | 416 kts | 216° |
| 2026-05-04 21:50 | 41.23447 | -7.63494 | 35103 ft | 416 kts | 216° |
| 2026-05-04 21:51 | 41.18441 | -7.67320 | 35102 ft | 415 kts | 216° |
| 2026-05-04 21:51 | 41.13437 | -7.71137 | 35109 ft | 414 kts | 216° |
| 2026-05-04 21:52 | 41.08441 | -7.74945 | 35115 ft | 414 kts | 216° |
| 2026-05-04 21:52 | 41.03446 | -7.78734 | 35116 ft | 413 kts | 216° |
| 2026-05-04 21:53 | 40.98463 | -7.82508 | 35113 ft | 412 kts | 216° |
| 2026-05-04 21:53 | 40.93496 | -7.86271 | 35112 ft | 411 kts | 217° |
| 2026-05-04 21:54 | 40.88528 | -7.90027 | 35121 ft | 411 kts | 217° |
| 2026-05-04 21:54 | 40.83572 | -7.93763 | 35128 ft | 410 kts | 217° |
| 2026-05-04 21:55 | 40.78632 | -7.97496 | 35119 ft | 409 kts | 217° |
| 2026-05-04 21:55 | 40.73702 | -8.01215 | 35125 ft | 408 kts | 217° |
| 2026-05-04 21:56 | 40.68772 | -8.04917 | 35119 ft | 408 kts | 217° |
| 2026-05-04 21:56 | 40.64644 | -8.08002 | 35123 ft | 407 kts | 217° |
| 2026-05-04 21:57 | 40.59728 | -8.11683 | 35122 ft | 406 kts | 217° |
| 2026-05-04 21:57 | 40.54819 | -8.15353 | 35121 ft | 405 kts | 217° |
| 2026-05-04 21:58 | 40.49902 | -8.19019 | 34430 ft | 408 kts | 218° |
| 2026-05-04 21:58 | 40.47474 | -8.20824 | 33832 ft | 395 kts | 218° |
| 2026-05-04 21:58 | 40.45127 | -8.22554 | 33351 ft | 378 kts | 218° |
| 2026-05-04 21:58 | 40.42875 | -8.24206 | 32898 ft | 363 kts | 219° |
| 2026-05-04 21:59 | 40.40718 | -8.25792 | 32385 ft | 350 kts | 219° |
| 2026-05-04 21:59 | 40.38611 | -8.27359 | 31659 ft | 345 kts | 220° |
| 2026-05-04 21:59 | 40.36540 | -8.28911 | 30975 ft | 340 kts | 220° |
| 2026-05-04 21:59 | 40.34501 | -8.30438 | 30306 ft | 336 kts | 220° |
| 2026-05-04 22:00 | 40.32491 | -8.31939 | 29643 ft | 328 kts | 220° |
| 2026-05-04 22:00 | 40.28512 | -8.34898 | 29451 ft | 330 kts | 220° |
| 2026-05-04 22:01 | 40.24539 | -8.37844 | 29164 ft | 331 kts | 220° |
| 2026-05-04 22:01 | 40.22544 | -8.39316 | 28783 ft | 328 kts | 220° |
| 2026-05-04 22:01 | 40.20556 | -8.40777 | 28410 ft | 327 kts | 220° |
| 2026-05-04 22:01 | 40.18583 | -8.42227 | 28034 ft | 325 kts | 220° |
| 2026-05-04 22:02 | 40.16614 | -8.43675 | 27669 ft | 323 kts | 220° |
| 2026-05-04 22:02 | 40.14660 | -8.45111 | 27309 ft | 322 kts | 220° |
| 2026-05-04 22:02 | 40.12712 | -8.46544 | 26946 ft | 321 kts | 219° |
| 2026-05-04 22:02 | 40.10770 | -8.47971 | 26595 ft | 319 kts | 219° |
| 2026-05-04 22:03 | 40.08837 | -8.49395 | 26229 ft | 318 kts | 219° |
| 2026-05-04 22:03 | 40.06916 | -8.50811 | 25862 ft | 317 kts | 219° |
| 2026-05-04 22:03 | 40.04954 | -8.52155 | 25483 ft | 322 kts | 213° |
| 2026-05-04 22:03 | 40.02791 | -8.53051 | 25100 ft | 332 kts | 201° |
| 2026-05-04 22:04 | 40.00421 | -8.53377 | 24877 ft | 359 kts | 189° |
| 2026-05-04 22:04 | 39.97866 | -8.53209 | 24636 ft | 372 kts | 186° |
| 2026-05-04 22:04 | 39.95271 | -8.52990 | 24371 ft | 374 kts | 185° |
| 2026-05-04 22:04 | 39.92677 | -8.52763 | 24122 ft | 373 kts | 185° |
| 2026-05-04 22:05 | 39.90086 | -8.52537 | 23867 ft | 372 kts | 185° |
| 2026-05-04 22:05 | 39.87512 | -8.52317 | 23598 ft | 371 kts | 185° |
| 2026-05-04 22:05 | 39.84936 | -8.52101 | 23327 ft | 370 kts | 185° |
| 2026-05-04 22:05 | 39.82379 | -8.51886 | 23077 ft | 368 kts | 185° |
| 2026-05-04 22:06 | 39.79825 | -8.51672 | 22829 ft | 366 kts | 185° |
| 2026-05-04 22:06 | 39.77325 | -8.51735 | 22568 ft | 352 kts | 196° |
| 2026-05-04 22:06 | 39.75000 | -8.52417 | 22279 ft | 334 kts | 208° |
| 2026-05-04 22:06 | 39.72927 | -8.53636 | 22121 ft | 322 kts | 218° |
| 2026-05-04 22:07 | 39.71028 | -8.55155 | 21911 ft | 320 kts | 219° |
| 2026-05-04 22:07 | 39.69129 | -8.56664 | 21696 ft | 320 kts | 219° |
| 2026-05-04 22:07 | 39.67226 | -8.58156 | 21466 ft | 319 kts | 218° |
| 2026-05-04 22:07 | 39.65327 | -8.59640 | 21262 ft | 319 kts | 218° |
| 2026-05-04 22:08 | 39.63430 | -8.61122 | 21050 ft | 318 kts | 218° |
| 2026-05-04 22:08 | 39.61538 | -8.62603 | 20832 ft | 317 kts | 218° |
| 2026-05-04 22:08 | 39.59653 | -8.64081 | 20618 ft | 317 kts | 218° |
| 2026-05-04 22:08 | 39.57767 | -8.65560 | 20396 ft | 316 kts | 218° |
| 2026-05-04 22:09 | 39.55888 | -8.67037 | 20188 ft | 316 kts | 218° |
| 2026-05-04 22:09 | 39.54012 | -8.68511 | 19975 ft | 315 kts | 218° |
| 2026-05-04 22:09 | 39.52142 | -8.69977 | 19759 ft | 314 kts | 218° |
| 2026-05-04 22:09 | 39.50270 | -8.71443 | 19551 ft | 314 kts | 218° |
| 2026-05-04 22:10 | 39.48405 | -8.72900 | 19339 ft | 313 kts | 217° |
| 2026-05-04 22:10 | 39.46542 | -8.74356 | 19126 ft | 313 kts | 217° |
| 2026-05-04 22:10 | 39.44681 | -8.75810 | 18909 ft | 312 kts | 217° |
| 2026-05-04 22:10 | 39.42825 | -8.77260 | 18701 ft | 311 kts | 217° |
| 2026-05-04 22:11 | 39.40973 | -8.78708 | 18493 ft | 310 kts | 218° |
| 2026-05-04 22:11 | 39.39301 | -8.80402 | 18271 ft | 302 kts | 230° |
| 2026-05-04 22:11 | 39.37906 | -8.82415 | 18061 ft | 300 kts | 234° |
| 2026-05-04 22:11 | 39.36534 | -8.84445 | 17853 ft | 300 kts | 233° |
| 2026-05-04 22:12 | 39.35159 | -8.86469 | 17655 ft | 299 kts | 233° |
| 2026-05-04 22:12 | 39.33791 | -8.88480 | 17453 ft | 298 kts | 233° |
| 2026-05-04 22:12 | 39.32422 | -8.90486 | 17249 ft | 298 kts | 233° |
| 2026-05-04 22:12 | 39.31048 | -8.92495 | 17046 ft | 297 kts | 233° |
| 2026-05-04 22:13 | 39.29682 | -8.94492 | 16833 ft | 297 kts | 233° |
| 2026-05-04 22:13 | 39.28318 | -8.96488 | 16648 ft | 296 kts | 233° |
| 2026-05-04 22:13 | 39.26959 | -8.98479 | 16444 ft | 295 kts | 233° |
| 2026-05-04 22:13 | 39.25618 | -9.00445 | 16247 ft | 295 kts | 233° |
| 2026-05-04 22:14 | 39.24246 | -9.02453 | 16038 ft | 294 kts | 233° |
| 2026-05-04 22:14 | 39.22907 | -9.04408 | 15846 ft | 294 kts | 233° |
| 2026-05-04 22:14 | 39.21538 | -9.06405 | 15648 ft | 293 kts | 233° |
| 2026-05-04 22:14 | 39.20205 | -9.08349 | 15449 ft | 293 kts | 233° |
| 2026-05-04 22:15 | 39.18858 | -9.10317 | 15256 ft | 293 kts | 232° |
| 2026-05-04 22:15 | 39.17513 | -9.12280 | 15056 ft | 292 kts | 232° |
| 2026-05-04 22:15 | 39.16171 | -9.14238 | 14860 ft | 291 kts | 232° |
| 2026-05-04 22:15 | 39.14829 | -9.16194 | 14662 ft | 291 kts | 232° |
| 2026-05-04 22:16 | 39.13485 | -9.18148 | 14467 ft | 291 kts | 232° |
| 2026-05-04 22:16 | 39.12148 | -9.20094 | 14276 ft | 290 kts | 232° |
| 2026-05-04 22:16 | 39.10813 | -9.22040 | 14061 ft | 290 kts | 232° |
| 2026-05-04 22:16 | 39.09457 | -9.24009 | 13867 ft | 289 kts | 232° |
| 2026-05-04 22:17 | 39.08123 | -9.25946 | 13665 ft | 289 kts | 232° |
| 2026-05-04 22:17 | 39.06795 | -9.27876 | 13472 ft | 288 kts | 232° |
| 2026-05-04 22:17 | 39.05464 | -9.29810 | 13272 ft | 288 kts | 232° |
| 2026-05-04 22:17 | 39.04136 | -9.31733 | 13078 ft | 288 kts | 232° |
| 2026-05-04 22:18 | 39.02822 | -9.33631 | 12879 ft | 288 kts | 232° |
| 2026-05-04 22:18 | 39.01474 | -9.35576 | 12688 ft | 287 kts | 232° |
| 2026-05-04 22:18 | 39.00147 | -9.37490 | 12493 ft | 287 kts | 232° |
| 2026-05-04 22:18 | 38.98838 | -9.39380 | 12298 ft | 287 kts | 232° |
| 2026-05-04 22:19 | 38.97496 | -9.41322 | 12107 ft | 286 kts | 232° |
| 2026-05-04 22:19 | 38.96173 | -9.43234 | 11911 ft | 286 kts | 231° |
| 2026-05-04 22:19 | 38.94852 | -9.45140 | 11719 ft | 286 kts | 231° |
| 2026-05-04 22:19 | 38.93549 | -9.47017 | 11520 ft | 286 kts | 231° |
| 2026-05-04 22:20 | 38.92228 | -9.48922 | 11333 ft | 285 kts | 231° |
| 2026-05-04 22:20 | 38.90922 | -9.50805 | 11158 ft | 279 kts | 231° |
| 2026-05-04 22:20 | 38.89634 | -9.52627 | 11031 ft | 270 kts | 227° |
| 2026-05-04 22:20 | 38.88120 | -9.54023 | 10860 ft | 268 kts | 209° |
| 2026-05-04 22:21 | 38.86334 | -9.54751 | 10754 ft | 273 kts | 191° |
| 2026-05-04 22:21 | 38.84428 | -9.54867 | 10574 ft | 275 kts | 184° |
| 2026-05-04 22:21 | 38.83138 | -9.54893 | 10447 ft | 274 kts | 184° |
| 2026-05-04 22:21 | 38.80611 | -9.54940 | 10191 ft | 274 kts | 184° |
| 2026-05-04 22:22 | 38.79325 | -9.54964 | 10056 ft | 273 kts | 184° |
| 2026-05-04 22:22 | 38.77424 | -9.55003 | 9848 ft | 273 kts | 184° |
| 2026-05-04 22:22 | 38.74919 | -9.55058 | 9594 ft | 272 kts | 184° |
| 2026-05-04 22:22 | 38.73641 | -9.55089 | 9458 ft | 271 kts | 184° |
| 2026-05-04 22:23 | 38.71758 | -9.55132 | 9270 ft | 270 kts | 184° |
| 2026-05-04 22:23 | 38.69882 | -9.55173 | 9076 ft | 269 kts | 184° |
| 2026-05-04 22:23 | 38.68013 | -9.55213 | 8892 ft | 268 kts | 184° |
| 2026-05-04 22:23 | 38.66149 | -9.55252 | 8700 ft | 268 kts | 184° |
| 2026-05-04 22:24 | 38.64286 | -9.55290 | 8513 ft | 267 kts | 184° |
| 2026-05-04 22:24 | 38.62432 | -9.55330 | 8336 ft | 263 kts | 184° |
| 2026-05-04 22:24 | 38.60641 | -9.55367 | 8202 ft | 252 kts | 184° |
| 2026-05-04 22:24 | 38.58926 | -9.55274 | 8165 ft | 246 kts | 172° |
| 2026-05-04 22:25 | 38.57246 | -9.54842 | 8169 ft | 246 kts | 171° |
| 2026-05-04 22:25 | 38.55568 | -9.54413 | 8166 ft | 246 kts | 171° |
| 2026-05-04 22:25 | 38.53892 | -9.53993 | 8166 ft | 246 kts | 172° |
| 2026-05-04 22:25 | 38.52218 | -9.53575 | 8167 ft | 245 kts | 171° |
| 2026-05-04 22:26 | 38.50546 | -9.53137 | 8165 ft | 245 kts | 166° |
| 2026-05-04 22:26 | 38.48981 | -9.52269 | 8167 ft | 247 kts | 148° |
| 2026-05-04 22:26 | 38.47552 | -9.51039 | 8164 ft | 248 kts | 147° |
| 2026-05-04 22:26 | 38.46117 | -9.49813 | 8165 ft | 248 kts | 148° |
| 2026-05-04 22:27 | 38.44680 | -9.48593 | 8163 ft | 248 kts | 148° |
| 2026-05-04 22:27 | 38.43243 | -9.47378 | 8166 ft | 248 kts | 148° |
| 2026-05-04 22:27 | 38.41858 | -9.46071 | 8164 ft | 248 kts | 136° |
| 2026-05-04 22:27 | 38.40779 | -9.44354 | 8165 ft | 249 kts | 123° |
| 2026-05-04 22:28 | 38.39823 | -9.42513 | 8166 ft | 249 kts | 124° |
| 2026-05-04 22:28 | 38.38858 | -9.40677 | 8166 ft | 249 kts | 124° |
| 2026-05-04 22:28 | 38.37889 | -9.38845 | 8167 ft | 249 kts | 124° |
| 2026-05-04 22:28 | 38.36919 | -9.37008 | 8164 ft | 250 kts | 123° |
| 2026-05-04 22:29 | 38.36167 | -9.35025 | 8164 ft | 249 kts | 106° |
| 2026-05-04 22:29 | 38.35795 | -9.32870 | 8163 ft | 249 kts | 101° |
| 2026-05-04 22:29 | 38.35456 | -9.30704 | 8163 ft | 250 kts | 101° |
| 2026-05-04 22:29 | 38.35112 | -9.28537 | 8163 ft | 250 kts | 101° |
| 2026-05-04 22:30 | 38.34767 | -9.26370 | 8163 ft | 250 kts | 101° |
| 2026-05-04 22:30 | 38.34464 | -9.24184 | 8162 ft | 249 kts | 93° |
| 2026-05-04 22:30 | 38.34569 | -9.21999 | 8163 ft | 248 kts | 77° |
| 2026-05-04 22:30 | 38.34909 | -9.19844 | 8162 ft | 248 kts | 77° |
| 2026-05-04 22:31 | 38.35370 | -9.17740 | 8164 ft | 246 kts | 60° |
| 2026-05-04 22:31 | 38.36424 | -9.16082 | 8163 ft | 240 kts | 33° |
| 2026-05-04 22:31 | 38.37908 | -9.15190 | 8135 ft | 237 kts | 9° |
| 2026-05-04 22:31 | 38.39534 | -9.15182 | 7740 ft | 233 kts | 342° |
| 2026-05-04 22:32 | 38.40968 | -9.16038 | 7415 ft | 226 kts | 321° |
| 2026-05-04 22:32 | 38.42208 | -9.17251 | 7106 ft | 224 kts | 321° |
| 2026-05-04 22:32 | 38.43442 | -9.18450 | 6799 ft | 222 kts | 321° |
| 2026-05-04 22:32 | 38.44669 | -9.19638 | 6492 ft | 220 kts | 321° |
| 2026-05-04 22:33 | 38.45887 | -9.20815 | 6175 ft | 219 kts | 321° |
| 2026-05-04 22:33 | 38.47095 | -9.21981 | 5875 ft | 217 kts | 322° |
| 2026-05-04 22:33 | 38.48295 | -9.23141 | 5576 ft | 216 kts | 322° |
| 2026-05-04 22:33 | 38.49485 | -9.24293 | 5287 ft | 214 kts | 322° |
| 2026-05-04 22:34 | 38.50666 | -9.25439 | 4999 ft | 213 kts | 322° |
| 2026-05-04 22:34 | 38.51839 | -9.26580 | 4704 ft | 212 kts | 322° |
| 2026-05-04 22:34 | 38.53009 | -9.27714 | 4405 ft | 210 kts | 322° |
| 2026-05-04 22:34 | 38.54166 | -9.28837 | 4208 ft | 209 kts | 322° |
| 2026-05-04 22:35 | 38.55402 | -9.29779 | 4085 ft | 208 kts | 346° |
| 2026-05-04 22:35 | 38.56826 | -9.29596 | 4006 ft | 213 kts | 27° |
| 2026-05-04 22:35 | 38.57871 | -9.28237 | 4013 ft | 220 kts | 51° |
| 2026-05-04 22:35 | 38.58787 | -9.26667 | 4009 ft | 221 kts | 49° |
| 2026-05-04 22:36 | 38.59718 | -9.25111 | 3963 ft | 218 kts | 49° |
| 2026-05-04 22:36 | 38.60633 | -9.23612 | 3796 ft | 209 kts | 44° |
| 2026-05-04 22:36 | 38.61746 | -9.22488 | 3567 ft | 202 kts | 26° |
| 2026-05-04 22:36 | 38.62995 | -9.21695 | 3338 ft | 199 kts | 20° |
| 2026-05-04 22:37 | 38.64256 | -9.21001 | 3103 ft | 195 kts | 20° |
| 2026-05-04 22:37 | 38.65491 | -9.20340 | 2830 ft | 190 kts | 19° |
| 2026-05-04 22:37 | 38.66687 | -9.19702 | 2544 ft | 182 kts | 19° |
| 2026-05-04 22:37 | 38.67808 | -9.19104 | 2320 ft | 167 kts | 19° |
| 2026-05-04 22:38 | 38.68834 | -9.18556 | 2098 ft | 153 kts | 19° |
| 2026-05-04 22:38 | 38.69778 | -9.18053 | 1899 ft | 142 kts | 18° |
| 2026-05-04 22:38 | 38.70674 | -9.17576 | 1717 ft | 138 kts | 18° |
| 2026-05-04 22:38 | 38.71551 | -9.17109 | 1536 ft | 136 kts | 19° |
| 2026-05-04 22:39 | 38.72416 | -9.16648 | 1342 ft | 134 kts | 19° |
| 2026-05-04 22:39 | 38.73280 | -9.16187 | 1130 ft | 135 kts | 20° |
| 2026-05-04 22:39 | 38.74159 | -9.15718 | 921 ft | 137 kts | 20° |
| 2026-05-04 22:39 | 38.75039 | -9.15248 | 731 ft | 138 kts | 21° |
| 2026-05-04 22:40 | 38.75930 | -9.14772 | 541 ft | 139 kts | 21° |
| 2026-05-04 22:40 | 38.76824 | -9.14293 | 362 ft | 139 kts | 21° |
| 2026-05-04 22:40 | 38.77556 | -9.13902 | 349 ft | 74 kts | 22° |
| 2026-05-04 22:40 | 38.77805 | -9.13765 | 347 ft | 26 kts | 24° |
| 2026-05-04 22:41 | 38.77972 | -9.13678 | 347 ft | 26 kts | 22° |
| 2026-05-04 22:41 | 38.78136 | -9.13590 | 353 ft | 24 kts | 23° |
| 2026-05-04 22:41 | 38.78272 | -9.13481 | 352 ft | 20 kts | 40° |
| 2026-05-04 22:41 | 38.78352 | -9.13378 | 348 ft | 15 kts | 48° |
| 2026-05-04 22:42 | 38.78367 | -9.13343 | 350 ft | 3 kts | 72° |
| 2026-05-04 22:42 | 38.78373 | -9.13315 | 354 ft | 3 kts | 73° |
| 2026-05-04 22:42 | 38.78356 | -9.13270 | 354 ft | 11 kts | 140° |
| 2026-05-04 22:42 | 38.78290 | -9.13275 | 355 ft | 9 kts | 196° |
| 2026-05-04 22:43 | 38.78235 | -9.13300 | 349 ft | 8 kts | 201° |
| 2026-05-04 22:43 | 38.78187 | -9.13324 | 349 ft | 7 kts | 201° |
| 2026-05-04 22:43 | 38.78139 | -9.13351 | 354 ft | 12 kts | 205° |
| 2026-05-04 22:43 | 38.78070 | -9.13385 | 350 ft | 8 kts | 195° |
| 2026-05-04 22:44 | 38.78018 | -9.13400 | 347 ft | 9 kts | 190° |
| 2026-05-04 22:44 | 38.77943 | -9.13396 | 347 ft | 11 kts | 168° |
| 2026-05-04 22:44 | 38.77873 | -9.13376 | 347 ft | 12 kts | 167° |
| 2026-05-04 22:44 | 38.77782 | -9.13351 | 347 ft | 13 kts | 168° |
| 2026-05-04 22:45 | 38.77696 | -9.13329 | 347 ft | 12 kts | 169° |
| 2026-05-04 22:45 | 38.77550 | -9.13313 | 347 ft | 9 kts | 170° |
| 2026-05-04 22:45 | 38.77491 | -9.13296 | 354 ft | 8 kts | 167° |
| 2026-05-04 22:46 | 38.77439 | -9.13281 | 347 ft | 7 kts | 167° |
| 2026-05-04 22:46 | 38.77360 | -9.13263 | 347 ft | 16 kts | 172° |
| 2026-05-04 22:46 | 38.77237 | -9.13235 | 349 ft | 19 kts | 168° |
| 2026-05-04 22:46 | 38.77122 | -9.13204 | 351 ft | 16 kts | 168° |
| 2026-05-04 22:47 | 38.77026 | -9.13178 | 347 ft | 12 kts | 168° |
| 2026-05-04 22:47 | 38.76980 | -9.13157 | 355 ft | 3 kts | 102° |
| 2026-05-04 22:47 | 38.76979 | -9.13132 | 347 ft | 2 kts | 94° |
| 2026-05-04 22:47 | 38.76978 | -9.13114 | 352 ft | 2 kts | 95° |
| 2026-05-04 22:48 | 38.76980 | -9.13084 | 351 ft | 3 kts | 77° |
| 2026-05-04 22:48 | 38.76982 | -9.13077 | 350 ft | 0 kts | 74° |